createdAt,value
2019-04-05T00:05:46.173Z,100257.95
2019-04-05T00:08:16.069Z,100255.84
2019-04-05T00:10:45.452Z,100268.42
2019-04-05T00:13:33.825Z,100269.41
2019-04-05T00:16:03.434Z,100269.59
2019-04-05T00:18:32.734Z,100273.78
2019-04-05T00:21:21.113Z,100276.00
2019-04-05T00:23:50.701Z,100270.89
2019-04-05T00:26:20.000Z,100278.20
2019-04-05T00:28:51.658Z,100277.00
2019-04-05T00:31:20.331Z,100274.52
2019-04-05T00:33:50.043Z,100277.84
2019-04-05T00:36:19.322Z,100291.94
2019-04-05T00:38:49.034Z,100290.36
2019-04-05T00:41:18.312Z,100286.98
2019-04-05T00:43:47.656Z,100294.45
2019-04-05T00:46:16.948Z,100295.17
2019-04-05T00:48:46.649Z,100289.13
2019-04-05T00:53:50.918Z,100293.22
2019-04-05T00:56:20.269Z,100293.22
2019-04-05T00:58:49.579Z,100297.31
2019-04-05T01:01:18.934Z,100301.82
2019-04-05T01:03:48.224Z,100303.66
2019-04-05T01:06:17.664Z,100299.34
2019-04-05T01:08:47.016Z,100302.88
2019-04-05T01:11:16.455Z,100261.45
2019-04-05T01:13:45.745Z,100304.18
2019-04-05T01:16:15.077Z,100293.65
2019-04-05T01:21:53.889Z,100307.89
2019-04-05T01:24:42.321Z,100254.44
2019-04-05T01:27:23.092Z,100302.30
2019-04-05T01:29:52.384Z,100304.40
2019-04-05T01:32:21.949Z,100300.22
2019-04-05T01:34:51.258Z,100262.61
2019-04-05T01:40:31.638Z,100319.68
2019-04-05T01:43:01.931Z,100313.25
2019-04-05T01:45:31.265Z,100316.30
2019-04-05T01:48:19.673Z,100315.50
2019-04-05T01:50:49.077Z,100314.56
2019-04-05T01:56:32.962Z,100317.61
2019-04-05T01:59:02.266Z,100324.70
2019-04-05T02:01:31.545Z,100236.38
2019-04-05T02:04:01.033Z,100330.62
2019-04-05T02:07:09.666Z,100237.20
2019-04-05T02:09:39.108Z,100333.67
2019-04-05T02:15:03.873Z,100332.88
2019-04-05T02:17:35.761Z,100331.19
2019-04-05T02:20:24.707Z,100330.77
2019-04-05T02:22:54.212Z,100333.41
2019-04-05T02:25:23.621Z,100341.70
2019-04-05T02:27:52.967Z,100347.48
2019-04-05T02:30:22.462Z,100344.20
2019-04-05T02:36:00.704Z,100344.38
2019-04-05T02:38:30.016Z,100340.95
2019-04-05T02:41:38.852Z,100347.91
2019-04-05T02:44:28.957Z,100285.63
2019-04-05T02:46:58.284Z,100352.92
2019-04-05T02:49:48.043Z,100360.42
2019-04-05T02:52:56.676Z,100358.31
2019-04-05T02:55:27.504Z,100363.20
2019-04-05T02:58:17.308Z,100355.83
2019-04-05T03:00:46.894Z,100363.78
2019-04-05T03:15:33.555Z,100355.73
2019-04-05T03:18:03.104Z,100354.93
2019-04-05T03:20:52.938Z,100354.55
2019-04-05T03:23:22.247Z,100360.19
2019-04-05T03:29:08.970Z,100356.77
2019-04-05T03:31:38.811Z,100366.09
2019-04-05T03:37:43.340Z,100290.69
2019-04-05T03:40:12.890Z,100361.26
2019-04-05T03:42:42.226Z,100359.39
2019-04-05T03:45:11.812Z,100360.25
2019-04-05T03:47:41.204Z,100261.80
2019-04-05T03:53:18.685Z,100368.06
2019-04-05T03:55:48.094Z,100373.84
2019-04-05T03:58:17.365Z,100375.30
2019-04-05T04:00:47.250Z,100377.98
2019-04-05T04:03:35.604Z,100382.00
2019-04-05T04:09:19.302Z,100388.64
2019-04-05T04:11:49.209Z,100387.80
2019-04-05T04:14:57.833Z,100393.95
2019-04-05T04:17:27.376Z,100394.75
2019-04-05T04:22:52.091Z,100400.14
2019-04-05T04:28:30.336Z,100389.91
2019-04-05T04:30:59.712Z,100395.67
2019-04-05T04:33:29.613Z,100391.42
2019-04-05T04:35:59.007Z,100396.36
2019-04-05T04:38:47.443Z,100393.34
2019-04-05T04:41:56.087Z,100395.42
2019-04-05T04:47:04.447Z,100390.44
2019-04-05T04:52:46.393Z,100391.38
2019-04-05T04:58:30.242Z,100395.69
2019-04-05T05:00:59.809Z,100400.05
2019-04-05T05:03:29.301Z,100401.74
2019-04-05T05:06:38.036Z,100408.69
2019-04-05T05:09:26.866Z,100407.00
2019-04-05T05:11:56.159Z,100405.10
2019-04-05T05:14:26.051Z,100411.19
2019-04-05T05:16:55.348Z,100409.36
2019-04-05T05:19:25.414Z,100405.00
2019-04-05T05:22:14.094Z,100410.98
2019-04-05T05:27:31.754Z,100415.53
2019-04-05T05:30:01.450Z,100420.64
2019-04-05T05:32:50.117Z,100421.03
2019-04-05T05:35:58.787Z,100421.69
2019-04-05T05:41:05.644Z,100429.03
2019-04-05T05:43:34.955Z,100429.66
2019-04-05T05:46:04.573Z,100417.18
2019-04-05T05:48:34.049Z,100367.69
2019-04-05T05:51:22.380Z,100417.59
2019-04-05T05:53:51.843Z,100415.94
2019-04-05T05:58:41.735Z,100421.56
2019-04-05T06:03:46.500Z,100419.17
2019-04-05T06:06:34.826Z,100426.78
2019-04-05T06:09:16.206Z,100431.77
2019-04-05T06:11:45.548Z,100434.97
2019-04-05T06:14:15.019Z,100433.81
2019-04-05T06:16:46.633Z,100431.84
2019-04-05T06:19:15.332Z,100445.46
2019-04-05T06:21:44.713Z,100437.28
2019-04-05T06:24:33.062Z,100442.28
2019-04-05T06:27:02.476Z,100442.40
2019-04-05T06:29:31.786Z,100445.12
2019-04-05T06:34:36.509Z,100446.22
2019-04-05T06:37:24.771Z,100449.00
2019-04-05T06:39:54.057Z,100457.02
2019-04-05T06:42:23.655Z,100456.86
2019-04-05T06:44:53.680Z,100459.57
2019-04-05T06:47:23.147Z,100460.34
2019-04-05T06:49:52.447Z,100384.56
2019-04-05T06:52:22.023Z,100458.97
2019-04-05T06:54:51.324Z,100460.48
2019-04-05T06:57:20.770Z,100466.45
2019-04-05T06:59:50.153Z,100457.34
2019-04-05T07:02:19.970Z,100461.77
2019-04-05T07:04:49.272Z,100465.08
2019-04-05T07:07:18.922Z,100466.12
2019-04-05T07:09:48.225Z,100410.55
2019-04-05T07:12:20.441Z,100463.81
2019-04-05T07:14:48.884Z,100453.13
2019-04-05T07:17:18.266Z,100471.20
2019-04-05T07:19:47.566Z,100468.42
2019-04-05T07:22:16.982Z,100467.73
2019-04-05T07:24:46.274Z,100474.02
2019-04-05T07:27:15.909Z,100469.91
2019-04-05T07:29:45.212Z,100473.54
2019-04-05T07:32:14.725Z,100478.70
2019-04-05T07:34:44.045Z,100484.51
2019-04-05T07:37:32.388Z,100489.73
2019-04-05T07:40:02.033Z,100489.73
2019-04-05T07:42:31.333Z,100489.38
2019-04-05T07:45:00.981Z,100486.48
2019-04-05T07:47:30.442Z,100486.58
2019-04-05T07:50:00.061Z,100489.62
2019-04-05T07:52:48.380Z,100493.63
2019-04-05T07:55:17.731Z,100493.83
2019-04-05T07:57:47.318Z,100478.30
2019-04-05T08:00:54.688Z,100490.39
2019-04-05T08:03:43.248Z,100494.16
2019-04-05T08:09:42.676Z,100515.33
2019-04-05T08:12:11.962Z,100511.33
2019-04-05T08:17:37.326Z,100515.25
2019-04-05T08:20:07.161Z,100510.11
2019-04-05T08:22:36.499Z,100431.89
2019-04-05T08:25:05.922Z,100524.86
2019-04-05T08:27:35.212Z,100472.91
2019-04-05T08:33:13.765Z,100442.16
2019-04-05T08:36:01.936Z,100465.45
2019-04-05T08:38:50.327Z,100525.17
2019-04-05T08:41:19.907Z,100511.92
2019-04-05T08:43:49.197Z,100509.66
2019-04-05T08:46:19.321Z,100508.27
2019-04-05T08:48:48.589Z,100506.25
2019-04-05T08:51:18.302Z,100519.69
2019-04-05T08:53:47.568Z,100509.22
2019-04-05T08:56:17.167Z,100496.55
2019-04-05T08:58:46.468Z,100416.97
2019-04-05T09:01:16.330Z,100507.89
2019-04-05T09:03:45.626Z,100401.68
2019-04-05T09:06:15.064Z,100509.44
2019-04-05T09:08:44.318Z,100510.98
2019-04-05T09:11:14.142Z,100522.44
2019-04-05T09:13:43.423Z,100519.41
2019-04-05T09:16:13.169Z,100509.00
2019-04-05T09:18:42.457Z,100462.78
2019-04-05T09:21:12.032Z,100511.92
2019-04-05T09:23:41.344Z,100469.88
2019-04-05T09:26:11.227Z,100519.87
2019-04-05T09:28:40.571Z,100519.08
2019-04-05T09:31:10.145Z,100514.53
2019-04-05T09:33:39.427Z,100511.54
2019-04-05T09:36:09.077Z,100510.27
2019-04-05T09:38:38.378Z,100508.39
2019-04-05T09:43:56.984Z,100500.56
2019-04-05T09:46:26.277Z,100505.30
2019-04-05T09:48:55.969Z,100506.63
2019-04-05T09:51:25.250Z,100463.09
2019-04-05T09:53:54.936Z,100512.08
2019-04-05T09:56:24.231Z,100517.67
2019-04-05T09:58:54.016Z,100512.11
2019-04-05T10:01:23.318Z,100510.54
2019-04-05T10:03:53.093Z,100511.48
2019-04-05T10:06:22.377Z,100512.81
2019-04-05T10:11:27.289Z,100515.27
2019-04-05T10:13:56.619Z,100505.70
2019-04-05T10:16:26.140Z,100508.74
2019-04-05T10:18:55.408Z,100523.88
2019-04-05T10:21:24.920Z,100515.88
2019-04-05T10:23:54.217Z,100520.61
2019-04-05T10:26:23.949Z,100516.61
2019-04-05T10:28:53.234Z,100513.56
2019-04-05T10:31:23.025Z,100521.33
2019-04-05T10:33:52.313Z,100524.21
2019-04-05T10:36:22.010Z,100522.19
2019-04-05T10:38:51.332Z,100523.05
2019-04-05T10:41:23.037Z,100520.85
2019-04-05T10:43:51.903Z,100533.44
2019-04-05T10:46:40.243Z,100524.44
2019-04-05T10:49:09.890Z,100528.30
2019-04-05T10:51:39.177Z,100525.42
2019-04-05T10:54:09.626Z,100530.10
2019-04-05T10:56:39.488Z,100528.64
2019-04-05T10:59:09.087Z,100525.02
2019-04-05T11:01:38.415Z,100519.93
2019-04-05T11:04:08.169Z,100524.76
2019-04-05T11:06:37.466Z,100423.07
2019-04-05T11:09:47.903Z,100516.80
2019-04-05T11:12:17.189Z,100470.44
2019-04-05T11:14:46.684Z,100527.01
2019-04-05T11:17:16.008Z,100523.48
2019-04-05T11:19:45.306Z,100527.45
2019-04-05T11:22:14.615Z,100498.78
2019-04-05T11:24:44.107Z,100530.88
2019-04-05T11:27:13.408Z,100529.06
2019-04-05T11:29:42.779Z,100525.48
2019-04-05T11:32:12.070Z,100531.40
2019-04-05T11:34:41.746Z,100523.59
2019-04-05T11:40:18.141Z,100523.98
2019-04-05T11:45:53.640Z,100517.73
2019-04-05T11:48:23.029Z,100534.63
2019-04-05T11:50:52.360Z,100520.97
2019-04-05T11:53:22.159Z,100524.76
2019-04-05T11:55:53.050Z,100517.22
2019-04-05T11:58:22.352Z,100520.30
2019-04-05T12:01:10.603Z,100517.97
2019-04-05T12:03:58.972Z,100521.13
2019-04-05T12:06:28.344Z,100509.31
2019-04-05T12:09:16.709Z,100505.26
2019-04-05T12:11:57.547Z,100513.27
2019-04-05T12:14:38.636Z,100507.00
2019-04-05T12:19:58.171Z,100462.48
2019-04-05T12:22:27.514Z,100462.67
2019-04-05T12:24:57.001Z,100512.32
2019-04-05T12:27:26.366Z,100470.81
2019-04-05T12:29:56.081Z,100517.95
2019-04-05T12:35:04.477Z,100515.75
2019-04-05T12:40:10.125Z,100516.69
2019-04-05T12:42:42.639Z,100523.46
2019-04-05T12:45:31.246Z,100528.02
2019-04-05T12:48:00.546Z,100526.39
2019-04-05T12:50:30.084Z,100519.52
2019-04-05T12:52:59.378Z,100450.47
2019-04-05T12:55:29.153Z,100523.03
2019-04-05T12:57:58.512Z,100479.98
2019-04-05T13:00:28.142Z,100519.75
2019-04-05T13:02:57.489Z,100525.56
2019-04-05T13:05:27.285Z,100522.93
2019-04-05T13:07:56.635Z,100533.33
2019-04-05T13:10:26.535Z,100528.74
2019-04-05T13:12:58.004Z,100512.95
2019-04-05T13:15:27.569Z,100524.39
2019-04-05T13:18:00.415Z,100521.28
2019-04-05T13:20:30.193Z,100511.31
2019-04-05T13:23:10.362Z,100518.59
2019-04-05T13:25:41.093Z,100518.02
2019-04-05T13:28:13.471Z,100512.84
2019-04-05T13:30:42.058Z,100514.86
2019-04-05T13:33:11.602Z,100523.56
2019-04-05T13:35:40.916Z,100520.12
2019-04-05T13:38:10.585Z,100519.06
2019-04-05T13:40:39.868Z,100516.05
2019-04-05T13:43:09.472Z,100518.63
2019-04-05T13:45:38.760Z,100513.56
2019-04-05T13:48:09.049Z,100523.45
2019-04-05T13:50:41.409Z,100528.80
2019-04-05T13:53:11.340Z,100526.84
2019-04-05T13:55:41.440Z,100526.84
2019-04-05T13:58:11.885Z,100522.45
2019-04-05T14:00:41.598Z,100524.84
2019-04-05T14:03:30.155Z,100516.33
2019-04-05T14:05:59.494Z,100512.98
2019-04-05T14:08:29.235Z,100525.82
2019-04-05T14:10:58.519Z,100523.99
2019-04-05T14:13:27.927Z,100515.19
2019-04-05T14:15:58.072Z,100520.34
2019-04-05T14:18:27.772Z,100524.89
2019-04-05T14:20:57.128Z,100525.02
2019-04-05T14:23:27.012Z,100528.22
2019-04-05T14:25:59.381Z,100523.69
2019-04-05T14:28:27.577Z,100524.11
2019-04-05T14:30:56.919Z,100526.32
2019-04-05T14:33:26.588Z,100527.94
2019-04-05T14:35:55.858Z,100531.45
2019-04-05T14:38:25.399Z,100532.34
2019-04-05T14:40:54.657Z,100465.83
2019-04-05T14:43:24.247Z,100524.13
2019-04-05T14:45:53.573Z,100476.89
2019-04-05T14:48:41.865Z,100532.97
2019-04-05T14:51:11.330Z,100526.82
2019-04-05T14:53:42.918Z,100475.12
2019-04-05T14:56:12.220Z,100522.56
2019-04-05T14:58:41.510Z,100441.55
2019-04-05T15:01:11.081Z,100522.38
2019-04-05T15:03:40.437Z,100522.51
2019-04-05T15:06:10.110Z,100518.63
2019-04-05T15:08:40.025Z,100425.43
2019-04-05T15:11:11.278Z,100516.91
2019-04-05T15:16:36.696Z,100523.10
2019-04-05T15:19:06.208Z,100518.71
2019-04-05T15:21:38.787Z,100514.63
2019-04-05T15:24:08.833Z,100516.57
2019-04-05T15:26:38.313Z,100472.18
2019-04-05T15:29:07.893Z,100520.23
2019-04-05T15:31:37.141Z,100512.14
2019-04-05T15:34:06.669Z,100515.91
2019-04-05T15:36:54.914Z,100441.72
2019-04-05T15:39:24.226Z,100519.22
2019-04-05T15:41:53.882Z,100524.78
2019-04-05T15:44:23.212Z,100525.91
2019-04-05T15:46:52.790Z,100510.82
2019-04-05T15:49:22.282Z,100453.09
2019-04-05T15:51:55.065Z,100521.91
2019-04-05T15:54:24.210Z,100516.48
2019-04-05T15:56:55.412Z,100517.47
2019-04-05T15:59:24.973Z,100515.41
2019-04-05T16:01:54.401Z,100519.08
2019-04-05T16:04:24.584Z,100522.23
2019-04-05T16:06:53.914Z,100508.38
2019-04-05T16:09:23.591Z,100512.82
2019-04-05T16:11:52.894Z,100521.83
2019-04-05T16:14:22.310Z,100520.50
2019-04-05T16:16:51.590Z,100521.38
2019-04-05T16:19:20.955Z,100525.64
2019-04-05T16:21:50.254Z,100523.23
2019-04-05T16:24:19.699Z,100523.23
2019-04-05T16:26:49.005Z,100523.88
2019-04-05T16:29:18.396Z,100521.25
2019-04-05T16:31:47.719Z,100519.93
2019-04-05T16:34:17.087Z,100529.67
2019-04-05T16:36:46.387Z,100523.50
2019-04-05T16:44:49.878Z,100535.33
2019-04-05T16:47:38.207Z,100532.48
2019-04-05T16:50:08.140Z,100541.61
2019-04-05T16:52:44.768Z,100540.44
2019-04-05T16:58:10.443Z,100539.63
2019-04-05T17:00:39.729Z,100538.55
2019-04-05T17:03:09.161Z,100532.13
2019-04-05T17:06:17.777Z,100532.63
2019-04-05T17:09:06.144Z,100532.30
2019-04-05T17:11:35.750Z,100536.83
2019-04-05T17:14:24.228Z,100526.28
2019-04-05T17:16:53.727Z,100534.28
2019-04-05T17:19:23.130Z,100533.56
2019-04-05T17:21:52.498Z,100477.72
2019-04-05T17:24:22.096Z,100455.55
2019-04-05T17:26:51.460Z,100532.39
2019-04-05T17:32:01.499Z,100458.21
2019-04-05T17:34:30.863Z,100537.20
2019-04-05T17:37:00.274Z,100542.19
2019-04-05T17:39:29.858Z,100540.60
2019-04-05T17:41:59.149Z,100547.86
2019-04-05T17:44:28.725Z,100541.80
2019-04-05T17:46:58.022Z,100544.59
2019-04-05T17:49:27.425Z,100544.32
2019-04-05T17:51:56.729Z,100552.07
2019-04-05T17:54:45.009Z,100555.44
2019-04-05T18:00:20.548Z,100560.95
2019-04-05T18:02:52.714Z,100554.64
2019-04-05T18:05:22.893Z,100564.51
2019-04-05T18:07:54.037Z,100565.36
2019-04-05T18:10:25.713Z,100576.82
2019-04-05T18:12:55.893Z,100568.70
2019-04-05T18:15:52.403Z,100575.81
2019-04-05T18:21:27.110Z,100573.48
2019-04-05T18:29:37.394Z,100586.73
2019-04-05T18:32:06.673Z,100598.45
2019-04-05T18:34:55.059Z,100602.06
2019-04-05T18:37:35.988Z,100596.02
2019-04-05T18:40:05.647Z,100603.14
2019-04-05T18:42:35.305Z,100611.23
2019-04-05T18:45:05.045Z,100557.31
2019-04-05T18:47:34.501Z,100608.30
2019-04-05T18:50:03.875Z,100617.44
2019-04-05T18:52:33.297Z,100613.31
2019-04-05T18:55:02.672Z,100612.56
2019-04-05T18:57:32.201Z,100612.78
2019-04-05T19:00:01.526Z,100552.77
2019-04-05T19:02:30.966Z,100615.52
2019-04-05T19:07:50.187Z,100614.84
2019-04-05T19:10:19.536Z,100621.34
2019-04-05T19:12:49.004Z,100624.00
2019-04-05T19:15:18.723Z,100628.20
2019-04-05T19:17:48.037Z,100633.38
2019-04-05T19:20:17.457Z,100624.51
2019-04-05T19:22:46.776Z,100622.42
2019-04-05T19:25:16.349Z,100629.75
2019-04-05T19:27:45.644Z,100626.48
2019-04-05T19:50:24.106Z,100648.14
2019-04-05T19:52:53.509Z,100656.53
2019-04-05T19:55:22.964Z,100661.13
2019-04-05T19:57:52.275Z,100661.54
2019-04-05T20:00:21.907Z,100662.70
2019-04-05T20:02:51.246Z,100657.44
2019-04-05T20:05:21.131Z,100659.38
2019-04-05T20:07:50.467Z,100659.02
2019-04-05T20:10:19.906Z,100656.20
2019-04-05T20:12:49.183Z,100602.59
2019-04-05T20:15:18.712Z,100600.05
2019-04-05T20:17:48.047Z,100666.41
2019-04-05T20:20:17.882Z,100664.28
2019-04-05T20:22:47.136Z,100665.20
2019-04-05T20:27:51.017Z,100671.66
2019-04-05T20:30:20.550Z,100668.63
2019-04-05T20:32:49.966Z,100672.06
2019-04-05T20:35:19.241Z,100673.09
2019-04-05T20:37:48.807Z,100674.80
2019-04-05T20:40:18.103Z,100677.72
2019-04-05T20:42:47.536Z,100676.50
2019-04-05T20:45:16.866Z,100684.91
2019-04-05T20:48:05.123Z,100680.45
2019-04-05T20:50:34.453Z,100689.80
2019-04-05T20:53:03.778Z,100688.94
2019-04-05T20:55:33.075Z,100695.73
2019-04-05T21:00:56.226Z,100684.86
2019-04-05T21:03:25.989Z,100642.70
2019-04-05T21:05:55.287Z,100598.56
2019-04-05T21:08:25.038Z,100685.80
2019-04-05T21:10:54.347Z,100687.97
2019-04-05T21:13:24.052Z,100695.55
2019-04-05T21:15:53.319Z,100646.02
2019-04-05T21:18:22.928Z,100690.34
2019-04-05T21:20:52.210Z,100700.09
2019-04-05T21:23:21.727Z,100699.77
2019-04-05T21:26:02.798Z,100710.33
2019-04-05T21:31:20.789Z,100714.36
2019-04-05T21:33:50.095Z,100714.36
2019-04-05T21:36:19.812Z,100718.24
2019-04-05T21:38:49.211Z,100716.06
2019-04-05T21:41:37.584Z,100723.47
2019-04-05T21:44:06.887Z,100723.47
2019-04-05T21:46:36.280Z,100714.01
2019-04-05T21:49:24.612Z,100714.01
2019-04-05T21:51:53.929Z,100722.31
2019-04-05T21:54:23.209Z,100729.09
2019-04-05T21:56:52.563Z,100716.08
2019-04-05T21:59:21.863Z,100724.77
2019-04-05T22:02:30.582Z,100733.44
2019-04-05T22:05:01.317Z,100732.48
2019-04-05T22:07:30.815Z,100754.19
2019-04-05T22:10:00.194Z,100742.25
2019-04-05T22:12:29.922Z,100729.20
2019-04-05T22:14:59.321Z,100729.20
2019-04-05T22:17:28.645Z,100736.34
2019-04-05T22:20:17.084Z,100750.84
2019-04-05T22:23:05.462Z,100741.55
2019-04-05T22:25:34.889Z,100741.55
2019-04-05T22:28:04.271Z,100739.83
2019-04-05T22:30:33.648Z,100733.70
2019-04-05T22:36:10.614Z,100737.13
2019-04-05T22:38:39.906Z,100746.38
2019-04-05T22:43:58.103Z,100738.03
2019-04-05T22:46:27.390Z,100740.75
2019-04-05T22:51:51.149Z,100738.44
2019-04-05T22:54:21.401Z,100638.84
2019-04-05T22:56:50.714Z,100738.27
2019-04-05T22:59:22.379Z,100735.25
2019-04-05T23:01:51.682Z,100733.09
2019-04-05T23:04:21.194Z,100675.13
2019-04-05T23:06:50.521Z,100675.13
2019-04-05T23:09:20.102Z,100723.01
2019-04-05T23:11:49.402Z,100728.67
2019-04-05T23:14:19.027Z,100724.33
2019-04-05T23:16:48.315Z,100724.48
2019-04-05T23:19:17.853Z,100727.66
2019-04-05T23:21:47.152Z,100727.66
2019-04-05T23:24:16.845Z,100728.77
2019-04-05T23:27:05.138Z,100724.21
2019-04-05T23:29:34.456Z,100733.45
2019-04-05T23:32:04.047Z,100731.80
2019-04-05T23:34:33.537Z,100731.50
2019-04-05T23:37:03.145Z,100728.48
2019-04-05T23:39:51.885Z,100630.41
2019-04-05T23:42:21.195Z,100729.70
2019-04-05T23:47:58.695Z,100738.35
2019-04-05T23:50:28.306Z,100729.69
2019-04-05T23:52:57.581Z,100716.17
2019-04-05T23:55:33.100Z,100729.70
2019-04-05T23:57:59.639Z,100678.60
